Time;durP1;ratioP1;P1;durP2;ratioP2;P2;SDS_P1;SDS_P2;PMS_P1;PMS_P2;Temp;Humidity;BMP_temperature;BMP_pressure;BME280_temperature;BME280_humidity;BME280_pressure;Samples;Min_cycle;Max_cycle;Signal;HPM_P1;HPM_P2
2021/11/11 00:00:46;;;;;;;53.63;28.65;;;5.10;99.90;;;;;;5031629;28;20060;-90
2021/11/11 00:03:12;;;;;;;56.17;28.70;;;5.20;99.90;;;;;;5034433;28;20022;-91
2021/11/11 00:05:38;;;;;;;59.60;28.80;;;5.30;99.90;;;;;;5027651;28;20125;-90
2021/11/11 00:08:04;;;;;;;59.67;29.40;;;5.30;99.90;;;;;;5037275;28;20053;-90
2021/11/11 00:10:30;;;;;;;52.60;27.98;;;5.40;99.90;;;;;;5026575;28;20034;-91
2021/11/11 00:12:57;;;;;;;57.50;27.70;;;5.30;99.90;;;;;;5033178;28;20018;-91
2021/11/11 00:15:23;;;;;;;54.10;27.17;;;5.40;99.90;;;;;;5036681;28;20052;-90
2021/11/11 00:17:49;;;;;;;53.53;27.38;;;5.40;99.90;;;;;;5025113;28;20026;-90
2021/11/11 00:20:17;;;;;;;51.35;26.77;;;5.40;99.90;;;;;;5031703;28;20056;-90
2021/11/11 00:22:44;;;;;;;55.80;28.10;;;5.40;99.90;;;;;;5021976;28;20022;-90
2021/11/11 00:25:11;;;;;;;54.40;28.80;;;5.40;99.90;;;;;;5020620;28;20042;-90
2021/11/11 00:27:38;;;;;;;56.28;28.30;;;5.40;99.90;;;;;;5015768;28;20100;-90
2021/11/11 00:30:07;;;;;;;57.75;27.27;;;5.50;99.90;;;;;;5023423;28;20047;-89
2021/11/11 00:32:34;;;;;;;53.00;26.73;;;5.50;99.90;;;;;;5022415;28;20501;-89
2021/11/11 00:34:59;;;;;;;53.83;27.20;;;5.50;99.90;;;;;;5022279;28;20496;-89
2021/11/11 00:37:25;;;;;;;55.80;28.48;;;5.60;99.90;;;;;;5031701;28;20029;-89
2021/11/11 00:39:51;;;;;;;52.88;28.58;;;5.60;99.90;;;;;;5031142;28;20040;-90
2021/11/11 00:42:17;;;;;;;51.05;26.85;;;5.60;99.90;;;;;;5038906;28;20051;-89
2021/11/11 00:44:43;;;;;;;64.35;28.88;;;5.60;99.90;;;;;;5032012;28;20120;-89
2021/11/11 00:47:09;;;;;;;58.78;30.00;;;5.50;99.90;;;;;;5032800;28;20033;-89
2021/11/11 00:49:34;;;;;;;56.70;29.23;;;5.50;99.90;;;;;;5033855;28;20018;-89
2021/11/11 00:52:00;;;;;;;64.70;32.33;;;5.50;99.90;;;;;;5024960;28;20037;-90
2021/11/11 00:54:25;;;;;;;73.75;34.65;;;5.40;99.90;;;;;;5033453;28;20097;-89
2021/11/11 00:56:51;;;;;;;64.90;34.88;;;5.40;99.90;;;;;;5025030;28;20040;-89
2021/11/11 00:59:17;;;;;;;66.82;32.97;;;5.50;99.90;;;;;;5035339;28;20045;-89
2021/11/11 01:01:42;;;;;;;63.88;33.10;;;5.50;99.90;;;;;;5052394;28;20038;-89
2021/11/11 01:04:08;;;;;;;69.53;32.35;;;5.50;99.90;;;;;;5032774;28;20040;-89
2021/11/11 01:06:34;;;;;;;64.35;32.67;;;5.60;99.90;;;;;;5027426;28;20421;-89
2021/11/11 01:08:59;;;;;;;56.72;31.10;;;5.60;99.90;;;;;;5053384;28;20082;-89
2021/11/11 01:11:26;;;;;;;53.78;30.20;;;5.60;99.90;;;;;;5035087;28;20050;-89
2021/11/11 01:13:52;;;;;;;61.45;30.13;;;5.60;99.90;;;;;;5029104;28;20051;-89
2021/11/11 01:16:18;;;;;;;60.15;29.52;;;5.70;99.90;;;;;;5035284;28;20484;-90
2021/11/11 01:18:44;;;;;;;58.03;29.33;;;5.70;99.90;;;;;;5034766;28;20029;-89
2021/11/11 01:21:10;;;;;;;55.38;29.20;;;5.60;99.90;;;;;;5058325;28;20373;-89
2021/11/11 01:23:36;;;;;;;60.55;29.55;;;5.70;99.90;;;;;;5046384;28;20040;-89
2021/11/11 01:26:03;;;;;;;61.85;31.08;;;5.70;99.90;;;;;;5029701;28;20391;-89
2021/11/11 01:28:29;;;;;;;61.20;29.80;;;5.70;99.90;;;;;;5043222;28;20123;-89
2021/11/11 01:30:55;;;;;;;60.00;29.65;;;5.70;99.90;;;;;;5068389;28;20068;-89
2021/11/11 01:33:20;;;;;;;69.18;31.85;;;5.70;99.90;;;;;;5050794;28;20037;-90
2021/11/11 01:35:46;;;;;;;60.30;31.08;;;5.70;99.90;;;;;;5025245;28;20047;-90
2021/11/11 01:38:12;;;;;;;62.67;31.10;;;5.70;99.90;;;;;;5032429;28;20404;-91
2021/11/11 01:40:38;;;;;;;65.35;31.60;;;5.70;99.90;;;;;;5053751;28;20032;-91
2021/11/11 01:43:06;;;;;;;66.22;31.50;;;5.80;99.90;;;;;;5050685;28;20029;-91
2021/11/11 01:45:41;;;;;;;62.70;31.63;;;5.80;99.90;;;;;;5052861;28;20048;-91
2021/11/11 01:48:11;;;;;;;61.58;32.65;;;5.80;99.90;;;;;;5045467;28;20032;-91
2021/11/11 01:50:37;;;;;;;63.45;32.13;;;5.80;99.90;;;;;;5052928;28;20100;-91
2021/11/11 01:53:04;;;;;;;64.72;33.40;;;5.80;99.90;;;;;;5053086;28;20063;-91
2021/11/11 01:55:30;;;;;;;65.82;32.72;;;5.80;99.90;;;;;;5047777;28;20032;-91
2021/11/11 01:57:59;;;;;;;65.07;32.47;;;5.80;99.90;;;;;;5036079;28;20389;-91
2021/11/11 02:00:33;;;;;;;68.68;32.67;;;5.90;99.90;;;;;;5034413;28;20061;-91
2021/11/11 02:03:04;;;;;;;62.45;32.00;;;5.90;99.90;;;;;;5041180;28;20100;-91
2021/11/11 02:05:31;;;;;;;67.88;32.92;;;5.90;99.90;;;;;;5050886;28;20083;-91
2021/11/11 02:07:57;;;;;;;69.70;33.38;;;5.90;99.90;;;;;;5052824;28;20083;-90
2021/11/11 02:10:25;;;;;;;71.88;34.67;;;6.00;99.90;;;;;;5032132;28;20021;-90
2021/11/11 02:12:50;;;;;;;59.88;32.08;;;6.00;99.90;;;;;;5019392;28;20436;-91
2021/11/11 02:15:17;;;;;;;65.32;33.45;;;6.00;99.90;;;;;;5036693;28;20025;-91
2021/11/11 02:17:43;;;;;;;65.57;34.63;;;6.00;99.90;;;;;;5032095;28;20500;-91
2021/11/11 02:20:30;;;;;;;65.43;33.58;;;6.00;99.90;;;;;;5031440;28;20025;-91
2021/11/11 02:23:00;;;;;;;69.15;36.65;;;6.00;99.90;;;;;;5051548;28;20072;-91
2021/11/11 02:25:27;;;;;;;72.18;36.40;;;5.90;99.90;;;;;;5051352;28;20155;-91
2021/11/11 02:27:59;;;;;;;74.25;37.33;;;5.90;99.90;;;;;;5048727;28;20025;-91
2021/11/11 02:30:26;;;;;;;74.10;36.47;;;5.90;99.90;;;;;;5026063;28;20025;-91
2021/11/11 02:32:53;;;;;;;75.35;35.70;;;5.90;99.90;;;;;;5026613;28;20061;-92
2021/11/11 02:35:20;;;;;;;77.43;37.75;;;6.00;99.90;;;;;;5037965;28;20488;-92
2021/11/11 02:37:46;;;;;;;70.90;35.55;;;5.90;99.90;;;;;;5026543;28;20116;-90
2021/11/11 02:40:15;;;;;;;71.03;34.20;;;6.00;99.90;;;;;;5034950;28;20033;-91
2021/11/11 02:42:43;;;;;;;68.20;35.10;;;6.00;99.90;;;;;;5026528;28;20072;-92
2021/11/11 02:45:12;;;;;;;68.45;36.53;;;6.00;99.90;;;;;;5025482;28;20037;-91
2021/11/11 02:47:37;;;;;;;73.30;38.35;;;6.10;99.90;;;;;;5034517;28;20107;-91
2021/11/11 02:50:04;;;;;;;62.88;33.88;;;6.10;99.90;;;;;;5026743;28;20061;-91
2021/11/11 02:52:30;;;;;;;69.95;34.78;;;6.20;99.90;;;;;;5043292;28;20103;-91
2021/11/11 02:54:55;;;;;;;68.22;35.40;;;6.20;99.90;;;;;;5033756;28;20109;-91
2021/11/11 02:57:31;;;;;;;73.22;35.15;;;6.20;99.90;;;;;;5026201;28;20029;-91
2021/11/11 03:00:00;;;;;;;68.03;35.30;;;6.20;99.90;;;;;;5048598;28;20053;-91
2021/11/11 03:02:29;;;;;;;63.85;34.22;;;6.20;99.90;;;;;;5020363;28;20040;-91
2021/11/11 03:04:56;;;;;;;63.72;34.17;;;6.20;99.90;;;;;;5026195;28;20025;-91
2021/11/11 03:07:22;;;;;;;65.05;32.67;;;6.20;99.90;;;;;;5028295;28;20068;-92
2021/11/11 03:09:48;;;;;;;71.60;33.97;;;6.20;99.90;;;;;;5031052;28;20135;-91
2021/11/11 03:12:14;;;;;;;65.35;32.10;;;6.20;99.90;;;;;;5055258;28;20108;-91
2021/11/11 03:14:40;;;;;;;71.60;34.58;;;6.20;99.90;;;;;;5028142;28;20071;-91
2021/11/11 03:17:06;;;;;;;70.85;35.50;;;6.20;99.90;;;;;;5042412;28;20025;-91
2021/11/11 03:19:33;;;;;;;71.20;35.75;;;6.20;99.90;;;;;;5046106;28;20025;-92
2021/11/11 03:22:01;;;;;;;69.15;34.15;;;6.20;99.90;;;;;;5046898;28;20025;-90
2021/11/11 03:24:26;;;;;;;63.25;33.58;;;6.20;99.90;;;;;;5052462;28;20025;-91
2021/11/11 03:26:52;;;;;;;64.60;32.85;;;6.20;99.90;;;;;;5053288;28;20041;-91
2021/11/11 03:29:17;;;;;;;66.15;34.28;;;6.10;99.90;;;;;;5035150;28;20476;-91
2021/11/11 03:31:43;;;;;;;64.30;34.55;;;6.10;99.90;;;;;;5050699;28;20445;-91
2021/11/11 03:34:08;;;;;;;58.72;32.15;;;6.10;99.90;;;;;;5028292;28;20363;-91
2021/11/11 03:36:34;;;;;;;67.28;31.55;;;6.00;99.90;;;;;;5030873;28;20035;-91
2021/11/11 03:38:59;;;;;;;60.10;32.35;;;6.10;99.90;;;;;;5027788;28;20029;-91
2021/11/11 03:41:26;;;;;;;61.88;33.20;;;6.10;99.90;;;;;;5021723;28;20029;-92
2021/11/11 03:43:51;;;;;;;56.67;29.88;;;6.00;99.90;;;;;;5033298;28;20104;-91
2021/11/11 03:46:17;;;;;;;61.53;33.17;;;6.00;99.90;;;;;;5030710;28;20140;-91
2021/11/11 03:48:43;;;;;;;66.50;32.60;;;6.00;99.90;;;;;;5035047;28;20362;-91
2021/11/11 03:51:09;;;;;;;59.25;33.22;;;6.00;99.90;;;;;;5033885;28;20033;-91
2021/11/11 03:53:35;;;;;;;59.72;31.42;;;6.00;99.90;;;;;;5034221;28;20025;-91
2021/11/11 03:56:01;;;;;;;64.70;31.13;;;6.00;99.90;;;;;;5030987;28;20074;-91
2021/11/11 03:58:27;;;;;;;62.58;31.15;;;6.00;99.90;;;;;;5032904;28;20017;-90
2021/11/11 04:00:53;;;;;;;57.88;32.28;;;6.00;99.90;;;;;;5033187;28;20055;-90
2021/11/11 04:03:19;;;;;;;64.68;33.03;;;6.00;99.90;;;;;;5034331;28;20025;-90
2021/11/11 04:05:44;;;;;;;59.72;32.45;;;6.00;99.90;;;;;;5033384;28;20033;-90
2021/11/11 04:08:10;;;;;;;56.22;30.95;;;6.00;99.90;;;;;;5022226;28;20029;-91
2021/11/11 04:10:36;;;;;;;58.80;31.98;;;6.00;99.90;;;;;;5025845;28;20033;-90
2021/11/11 04:13:04;;;;;;;59.63;31.73;;;6.00;99.90;;;;;;5029963;28;20060;-91
2021/11/11 04:15:30;;;;;;;70.05;31.30;;;6.00;99.90;;;;;;5033836;28;20017;-90
2021/11/11 04:17:57;;;;;;;66.05;33.22;;;6.00;99.90;;;;;;5037265;28;20029;-91
2021/11/11 04:20:23;;;;;;;61.28;31.40;;;5.90;99.90;;;;;;5053683;28;20025;-91
2021/11/11 04:22:49;;;;;;;61.78;32.10;;;5.90;99.90;;;;;;5041656;28;20103;-90
2021/11/11 04:25:23;;;;;;;61.75;31.08;;;5.90;99.90;;;;;;5030827;28;20109;-90
2021/11/11 04:28:15;;;;;;;59.92;29.50;;;5.90;99.90;;;;;;5053431;28;20061;-90
2021/11/11 04:30:35;;;;;;;67.82;30.83;;;5.90;99.90;;;;;;5048024;28;20068;-91
2021/11/11 04:33:02;;;;;;;54.65;29.35;;;6.00;99.90;;;;;;5034268;28;20397;-90
2021/11/11 04:35:28;;;;;;;54.08;29.33;;;6.00;99.90;;;;;;5028271;28;20032;-91
2021/11/11 04:38:04;;;;;;;67.30;31.40;;;6.00;99.90;;;;;;5025710;28;20152;-90
2021/11/11 04:41:05;;;;;;;63.53;31.45;;;6.10;99.90;;;;;;5031878;28;20053;-91
2021/11/11 04:43:49;;;;;;;61.78;31.55;;;6.10;99.90;;;;;;5051415;28;20061;-90
2021/11/11 04:46:28;;;;;;;60.08;30.55;;;6.10;99.90;;;;;;5034808;28;20472;-91
2021/11/11 05:05:19;;;;;;;64.07;31.13;;;6.20;99.90;;;;;;5046713;28;20029;-91
2021/11/11 05:07:45;;;;;;;63.33;28.83;;;6.20;99.90;;;;;;5025064;28;20473;-91
2021/11/11 05:10:12;;;;;;;59.67;29.70;;;6.20;99.90;;;;;;5039471;28;20704;-90
2021/11/11 05:12:37;;;;;;;58.65;30.63;;;6.20;99.90;;;;;;5033365;28;20033;-91
2021/11/11 05:15:04;;;;;;;62.38;30.45;;;6.10;99.90;;;;;;5033314;28;20437;-90
2021/11/11 05:17:29;;;;;;;60.85;29.10;;;6.10;99.90;;;;;;5039533;28;20409;-91
2021/11/11 05:19:55;;;;;;;57.70;29.63;;;6.10;99.90;;;;;;5036335;28;20025;-91
2021/11/11 05:22:21;;;;;;;56.97;29.63;;;6.00;99.90;;;;;;5024425;28;20021;-89
2021/11/11 05:24:47;;;;;;;54.05;28.92;;;6.00;99.90;;;;;;5049635;28;20079;-90
2021/11/11 05:27:14;;;;;;;55.30;29.75;;;6.00;99.90;;;;;;5035413;28;20396;-90
2021/11/11 05:29:40;;;;;;;66.50;31.33;;;6.00;99.90;;;;;;5030110;28;20156;-90
2021/11/11 05:32:07;;;;;;;59.15;29.52;;;6.10;99.90;;;;;;5048637;28;20029;-91
2021/11/11 05:34:32;;;;;;;58.67;30.30;;;6.00;99.90;;;;;;5034560;28;20083;-91
2021/11/11 05:36:58;;;;;;;61.22;33.17;;;6.10;99.90;;;;;;5035571;28;20021;-90
2021/11/11 05:39:23;;;;;;;54.63;28.85;;;6.10;99.90;;;;;;5036587;28;20028;-89
2021/11/11 05:41:49;;;;;;;59.90;30.70;;;6.10;99.90;;;;;;5032215;28;20023;-90
2021/11/11 05:44:15;;;;;;;63.35;31.33;;;6.10;99.90;;;;;;5029134;28;20025;-90
2021/11/11 05:46:41;;;;;;;54.30;31.02;;;6.20;99.90;;;;;;5035732;28;20033;-91
2021/11/11 05:49:06;;;;;;;56.70;29.63;;;6.20;99.90;;;;;;5035858;28;20021;-90
2021/11/11 05:51:32;;;;;;;63.38;30.33;;;6.20;99.90;;;;;;5041511;28;20029;-90
2021/11/11 05:53:57;;;;;;;58.35;30.55;;;6.20;99.90;;;;;;5033861;28;20059;-90
2021/11/11 05:56:23;;;;;;;58.53;31.10;;;6.10;99.90;;;;;;5027408;28;20037;-91
2021/11/11 05:58:48;;;;;;;57.55;30.42;;;6.20;99.90;;;;;;5035690;28;20021;-90
2021/11/11 06:01:14;;;;;;;55.95;29.95;;;6.10;99.90;;;;;;5026114;28;20048;-89
2021/11/11 06:03:39;;;;;;;62.58;30.27;;;6.10;99.90;;;;;;5031051;28;20021;-90
2021/11/11 06:06:05;;;;;;;59.15;30.50;;;6.00;99.90;;;;;;5029739;28;20040;-89
2021/11/11 06:08:31;;;;;;;60.95;31.05;;;6.00;99.90;;;;;;5028694;28;20037;-90
2021/11/11 06:10:56;;;;;;;55.95;29.52;;;6.10;99.90;;;;;;5029611;28;20029;-90
2021/11/11 06:13:22;;;;;;;64.35;31.42;;;6.00;99.90;;;;;;5024684;28;20029;-90
2021/11/11 06:15:49;;;;;;;57.08;30.25;;;6.10;99.90;;;;;;5027515;28;20492;-90
2021/11/11 06:18:15;;;;;;;58.33;29.25;;;6.00;99.90;;;;;;5033274;28;20040;-90
2021/11/11 06:20:49;;;;;;;58.55;28.95;;;6.10;99.90;;;;;;5024834;28;20041;-90
2021/11/11 06:23:17;;;;;;;58.60;31.00;;;6.10;99.90;;;;;;5027833;28;20035;-91
2021/11/11 06:25:43;;;;;;;58.85;30.60;;;6.00;99.90;;;;;;5024157;28;20036;-90
2021/11/11 06:28:09;;;;;;;60.00;31.33;;;6.00;99.90;;;;;;5025490;28;20052;-90
2021/11/11 06:30:36;;;;;;;60.58;29.50;;;6.00;99.90;;;;;;5028107;28;20057;-89
2021/11/11 06:33:01;;;;;;;50.10;29.85;;;6.00;99.90;;;;;;5031783;28;20029;-89
2021/11/11 06:35:29;;;;;;;54.85;29.27;;;6.00;99.90;;;;;;5037380;28;20115;-89
2021/11/11 06:37:54;;;;;;;60.20;31.42;;;6.00;99.90;;;;;;5036814;28;20023;-90
2021/11/11 06:40:20;;;;;;;58.75;30.83;;;5.90;99.90;;;;;;5034060;28;20029;-89
2021/11/11 06:42:45;;;;;;;55.20;28.83;;;5.90;99.90;;;;;;5031384;28;20726;-91
2021/11/11 06:45:12;;;;;;;56.75;28.55;;;5.90;99.90;;;;;;5026500;28;20041;-89
2021/11/11 06:47:41;;;;;;;51.38;29.60;;;5.90;99.90;;;;;;5034486;28;20032;-89
2021/11/11 06:50:08;;;;;;;58.65;30.20;;;5.80;99.90;;;;;;5035034;28;20043;-90
2021/11/11 06:52:34;;;;;;;56.38;30.35;;;5.80;99.90;;;;;;5023507;28;20022;-88
2021/11/11 06:55:00;;;;;;;58.72;29.42;;;5.70;99.90;;;;;;5034532;28;20021;-89
2021/11/11 06:57:29;;;;;;;55.13;29.30;;;5.70;99.90;;;;;;5037314;28;20097;-90
2021/11/11 06:59:54;;;;;;;58.90;30.98;;;5.70;99.90;;;;;;5029898;28;20120;-90
2021/11/11 07:02:20;;;;;;;61.92;30.67;;;5.70;99.90;;;;;;5033025;28;20453;-90
2021/11/11 07:04:46;;;;;;;66.13;32.78;;;5.70;99.90;;;;;;5035644;28;20111;-89
2021/11/11 07:07:12;;;;;;;59.13;30.65;;;5.70;99.90;;;;;;5046615;28;20033;-90
2021/11/11 07:09:37;;;;;;;56.08;29.88;;;5.60;99.90;;;;;;5034103;28;20075;-89
2021/11/11 07:12:03;;;;;;;51.60;28.42;;;5.60;99.90;;;;;;5020870;28;20047;-88
2021/11/11 07:14:29;;;;;;;61.92;31.67;;;5.60;99.90;;;;;;5026261;28;20018;-88
2021/11/11 07:16:54;;;;;;;55.08;29.77;;;5.60;99.90;;;;;;5031659;28;20407;-90
2021/11/11 07:19:20;;;;;;;57.53;29.83;;;5.60;99.90;;;;;;5018804;28;20029;-90
2021/11/11 07:21:45;;;;;;;54.35;29.95;;;5.50;99.90;;;;;;5031732;28;20025;-89
2021/11/11 07:24:11;;;;;;;51.75;28.48;;;5.50;99.90;;;;;;5036574;28;20488;-89
2021/11/11 07:26:37;;;;;;;56.88;30.20;;;5.50;99.90;;;;;;5022200;28;20626;-89
2021/11/11 07:29:02;;;;;;;59.72;30.42;;;5.40;99.90;;;;;;5032878;28;20479;-89
2021/11/11 07:31:28;;;;;;;54.42;30.20;;;5.30;99.90;;;;;;5032897;28;20083;-89
2021/11/11 07:33:54;;;;;;;50.90;29.13;;;5.30;99.90;;;;;;5028366;28;20035;-89
2021/11/11 07:36:20;;;;;;;57.20;30.60;;;5.40;99.90;;;;;;5028384;28;20112;-89
2021/11/11 07:38:45;;;;;;;56.30;30.17;;;5.40;99.90;;;;;;5031570;28;20020;-89
2021/11/11 07:41:11;;;;;;;59.22;30.30;;;5.40;99.90;;;;;;5032122;28;20029;-89
2021/11/11 07:43:37;;;;;;;57.28;31.42;;;5.40;99.90;;;;;;5041619;28;20481;-87
2021/11/11 07:46:07;;;;;;;52.58;29.23;;;5.40;99.90;;;;;;5026146;28;20132;-89
2021/11/11 07:48:33;;;;;;;54.20;29.98;;;5.40;99.90;;;;;;5030221;28;20054;-90
2021/11/11 07:51:00;;;;;;;56.00;29.65;;;5.40;99.90;;;;;;5032782;28;20081;-89
2021/11/11 07:53:29;;;;;;;62.35;32.47;;;5.50;99.90;;;;;;5033287;28;20025;-89
2021/11/11 07:55:56;;;;;;;55.88;29.85;;;5.50;99.90;;;;;;5035915;28;20025;-89
2021/11/11 07:58:28;;;;;;;54.75;30.88;;;5.50;99.90;;;;;;5032197;28;20029;-91
2021/11/11 08:00:56;;;;;;;57.70;30.65;;;5.60;99.90;;;;;;5033997;28;20053;-90
2021/11/11 08:03:22;;;;;;;55.45;31.15;;;5.60;99.90;;;;;;5028154;28;20101;-91
2021/11/11 08:05:47;;;;;;;64.10;31.73;;;5.70;99.90;;;;;;5035300;28;20124;-90
2021/11/11 08:08:13;;;;;;;51.97;29.63;;;5.70;99.90;;;;;;5031990;28;20028;-89
2021/11/11 08:10:42;;;;;;;56.83;30.60;;;5.80;99.90;;;;;;5036903;28;20029;-89
2021/11/11 08:13:08;;;;;;;62.03;30.33;;;5.80;99.90;;;;;;5029856;28;20053;-89
2021/11/11 08:15:34;;;;;;;62.47;31.58;;;5.90;99.90;;;;;;5052605;28;20040;-88
2021/11/11 08:18:06;;;;;;;50.88;30.60;;;5.90;99.90;;;;;;5051463;28;20066;-89
2021/11/11 08:20:31;;;;;;;60.00;32.30;;;6.00;99.90;;;;;;5049766;28;20300;-90
2021/11/11 08:22:57;;;;;;;58.33;31.08;;;6.00;99.90;;;;;;5037595;28;20036;-90
2021/11/11 08:25:23;;;;;;;55.22;31.13;;;6.00;99.90;;;;;;5047598;28;20025;-90
2021/11/11 08:27:49;;;;;;;54.80;29.17;;;6.00;99.90;;;;;;5037726;28;20065;-90
2021/11/11 08:30:17;;;;;;;52.42;30.13;;;6.10;99.90;;;;;;5037440;28;20021;-90
2021/11/11 08:32:44;;;;;;;58.70;30.75;;;6.20;99.90;;;;;;5037325;28;20017;-90
2021/11/11 08:35:12;;;;;;;59.13;31.00;;;6.20;99.90;;;;;;5032735;28;20025;-90
2021/11/11 08:37:40;;;;;;;60.00;30.73;;;6.30;99.90;;;;;;5049258;28;20033;-91
2021/11/11 08:40:07;;;;;;;60.00;31.48;;;6.30;99.90;;;;;;5034029;28;20068;-90
2021/11/11 08:42:33;;;;;;;59.60;30.98;;;6.40;99.90;;;;;;5051363;28;20108;-90
2021/11/11 08:45:00;;;;;;;59.42;33.08;;;6.50;99.90;;;;;;5027339;28;20059;-90
2021/11/11 08:47:26;;;;;;;60.08;32.58;;;6.60;99.90;;;;;;5035383;28;20109;-89
2021/11/11 08:49:56;;;;;;;58.85;31.02;;;6.60;99.90;;;;;;5032431;28;20024;-89
2021/11/11 08:52:23;;;;;;;57.95;31.85;;;6.70;99.90;;;;;;5023971;28;20495;-91
2021/11/11 08:54:50;;;;;;;60.25;31.52;;;6.70;99.90;;;;;;5033892;28;20029;-91
2021/11/11 08:57:15;;;;;;;54.03;31.23;;;6.70;99.90;;;;;;5030550;28;20025;-90
2021/11/11 08:59:41;;;;;;;60.22;32.10;;;6.80;99.90;;;;;;5037943;28;20048;-89
2021/11/11 09:02:10;;;;;;;66.38;34.55;;;6.80;99.90;;;;;;5030655;28;20124;-90
2021/11/11 09:04:38;;;;;;;59.67;32.78;;;6.80;99.90;;;;;;5032573;28;20122;-91
2021/11/11 09:07:04;;;;;;;58.15;32.83;;;6.90;99.90;;;;;;5032076;28;20045;-87
2021/11/11 09:09:32;;;;;;;66.15;34.38;;;6.90;99.90;;;;;;5032379;28;20066;-89
2021/11/11 09:11:58;;;;;;;59.95;32.67;;;7.00;99.90;;;;;;5038882;28;20087;-90
2021/11/11 09:14:24;;;;;;;58.83;33.70;;;7.00;99.90;;;;;;5047517;28;20021;-90
2021/11/11 09:16:50;;;;;;;62.72;32.95;;;7.10;99.90;;;;;;5034449;28;20124;-90
2021/11/11 09:19:16;;;;;;;62.05;34.28;;;7.10;99.90;;;;;;5033436;28;20021;-91
2021/11/11 09:21:48;;;;;;;54.53;32.58;;;7.20;99.90;;;;;;5035219;28;20021;-91
2021/11/11 09:24:14;;;;;;;60.38;33.30;;;7.30;99.90;;;;;;5031433;28;20044;-90
2021/11/11 09:26:42;;;;;;;62.00;34.67;;;7.20;99.90;;;;;;5034941;28;20032;-90
2021/11/11 09:29:08;;;;;;;60.13;32.90;;;7.30;99.90;;;;;;5052794;28;20028;-90
2021/11/11 09:31:37;;;;;;;58.17;32.72;;;7.40;99.90;;;;;;5032850;28;20047;-90
2021/11/11 09:34:03;;;;;;;61.83;33.05;;;7.40;99.90;;;;;;5034056;28;20098;-90
2021/11/11 09:36:29;;;;;;;67.65;35.22;;;7.50;99.90;;;;;;5036338;28;20041;-91
2021/11/11 09:38:57;;;;;;;60.65;33.80;;;7.60;99.90;;;;;;5032611;28;20103;-91
2021/11/11 09:41:23;;;;;;;57.50;32.97;;;7.60;99.90;;;;;;5044827;28;20068;-90
2021/11/11 09:43:53;;;;;;;60.50;35.17;;;7.60;99.90;;;;;;5033696;28;20056;-91
2021/11/11 09:46:20;;;;;;;64.45;36.00;;;7.60;99.90;;;;;;5030892;28;20060;-91
2021/11/11 09:48:46;;;;;;;64.22;34.80;;;7.70;99.90;;;;;;5051792;28;20051;-89
2021/11/11 09:51:17;;;;;;;64.03;35.03;;;7.90;99.90;;;;;;5028675;28;20104;-90
2021/11/11 09:53:52;;;;;;;60.75;33.83;;;8.00;99.90;;;;;;5029432;28;20033;-89
2021/11/11 09:59:03;;;;;;;63.03;34.35;;;8.10;99.90;;;;;;5040767;28;20040;-90
2021/11/11 10:01:29;;;;;;;59.17;32.88;;;8.10;99.90;;;;;;5031392;28;20401;-91
2021/11/11 10:03:55;;;;;;;57.03;31.88;;;8.20;99.90;;;;;;5033839;28;20031;-88
2021/11/11 10:06:27;;;;;;;60.67;33.53;;;8.20;99.90;;;;;;5035229;28;20033;-90
2021/11/11 10:08:58;;;;;;;57.53;33.05;;;8.30;99.90;;;;;;5052616;28;20048;-90
2021/11/11 10:11:35;;;;;;;62.20;34.35;;;8.30;99.90;;;;;;5033437;28;20044;-90
2021/11/11 10:14:07;;;;;;;62.95;33.78;;;8.40;99.90;;;;;;5031375;28;20025;-90
2021/11/11 10:16:41;;;;;;;53.42;31.55;;;8.40;99.90;;;;;;5026710;28;20036;-92
2021/11/11 10:19:08;;;;;;;61.50;33.55;;;8.50;99.90;;;;;;5043858;28;20036;-91
2021/11/11 10:21:52;;;;;;;60.25;32.28;;;8.60;99.90;;;;;;5045391;28;20071;-90
2021/11/11 10:24:34;;;;;;;54.33;31.67;;;8.60;99.90;;;;;;5032119;28;20040;-89
2021/11/11 10:27:28;;;;;;;60.70;31.20;;;8.70;99.90;;;;;;5027859;28;20069;-90
2021/11/11 10:30:05;;;;;;;56.53;30.92;;;8.80;99.90;;;;;;5033818;28;20033;-90
2021/11/11 10:32:40;;;;;;;56.78;31.15;;;8.80;99.90;;;;;;5028890;28;20111;-91
2021/11/11 10:35:08;;;;;;;57.28;31.98;;;8.80;99.90;;;;;;5031638;28;20033;-92
2021/11/11 10:37:42;;;;;;;55.70;29.85;;;8.90;99.90;;;;;;5033577;28;20025;-91
2021/11/11 10:40:09;;;;;;;65.10;31.40;;;8.90;99.90;;;;;;5043038;28;20028;-92
2021/11/11 10:42:37;;;;;;;54.22;30.88;;;9.00;99.90;;;;;;5030458;28;20431;-88
2021/11/11 10:45:11;;;;;;;58.88;32.30;;;9.10;99.90;;;;;;5050489;28;20029;-89
2021/11/11 10:47:38;;;;;;;53.20;31.50;;;9.10;99.90;;;;;;5029529;28;20539;-90
2021/11/11 10:50:10;;;;;;;53.65;29.27;;;9.10;99.90;;;;;;5035705;28;20129;-89
2021/11/11 10:52:50;;;;;;;51.70;29.30;;;9.20;99.90;;;;;;5029180;28;20025;-89
2021/11/11 10:55:17;;;;;;;52.65;28.88;;;9.30;99.90;;;;;;5050798;28;20025;-88
2021/11/11 10:57:45;;;;;;;55.30;31.40;;;9.30;99.90;;;;;;5043076;28;20079;-88
2021/11/11 11:00:35;;;;;;;51.08;28.55;;;9.40;99.90;;;;;;5029407;28;20048;-89
2021/11/11 11:03:27;;;;;;;48.38;27.90;;;9.60;99.90;;;;;;5031573;28;20040;-88
2021/11/11 11:06:02;;;;;;;52.63;29.23;;;9.60;99.90;;;;;;5036022;28;20033;-89
2021/11/11 11:08:32;;;;;;;47.47;28.08;;;9.60;99.90;;;;;;5048600;28;20021;-88
2021/11/11 11:11:10;;;;;;;47.13;26.23;;;9.70;99.90;;;;;;5050533;28;20372;-88
2021/11/11 11:13:42;;;;;;;48.35;28.55;;;9.80;99.90;;;;;;5047233;28;20049;-90
2021/11/11 11:16:13;;;;;;;44.75;26.80;;;9.80;99.90;;;;;;5043490;28;20036;-90
2021/11/11 11:18:44;;;;;;;44.55;25.75;;;9.90;99.90;;;;;;5027947;28;20047;-89
2021/11/11 11:21:16;;;;;;;45.28;27.27;;;9.90;99.90;;;;;;5038896;28;20111;-90
2021/11/11 11:23:55;;;;;;;42.80;27.52;;;9.90;99.90;;;;;;5045222;28;20498;-89
2021/11/11 11:26:26;;;;;;;44.20;26.48;;;10.00;99.90;;;;;;5024582;28;20460;-88
2021/11/11 11:31:42;;;;;;;44.35;27.08;;;10.00;99.90;;;;;;5033116;28;20029;-90
2021/11/11 11:34:11;;;;;;;44.20;26.30;;;10.00;99.90;;;;;;5030654;28;20088;-89
2021/11/11 11:36:48;;;;;;;46.25;26.85;;;10.10;99.90;;;;;;5018551;28;20515;-89
2021/11/11 11:39:22;;;;;;;42.95;24.98;;;10.20;99.90;;;;;;5028321;28;20032;-91
2021/11/11 11:41:48;;;;;;;42.10;24.52;;;10.30;99.90;;;;;;5016815;28;20036;-90
2021/11/11 11:44:18;;;;;;;39.53;25.65;;;10.30;99.90;;;;;;5013228;28;20055;-89
2021/11/11 11:46:55;;;;;;;41.35;24.52;;;10.30;99.90;;;;;;5014206;28;20492;-89
2021/11/11 11:49:23;;;;;;;39.35;24.45;;;10.40;99.90;;;;;;5012632;28;20025;-89
2021/11/11 11:51:48;;;;;;;45.28;26.67;;;10.40;99.90;;;;;;5018907;28;20021;-89
2021/11/11 11:57:02;;;;;;;43.75;24.92;;;10.40;99.90;;;;;;5036732;28;20123;-89
2021/11/11 11:59:33;;;;;;;43.58;24.70;;;10.40;99.90;;;;;;5021678;28;20111;-89
2021/11/11 12:04:53;;;;;;;38.35;22.52;;;10.60;99.90;;;;;;5037477;28;20025;-89
2021/11/11 12:07:29;;;;;;;47.55;24.70;;;10.60;99.90;;;;;;5035539;28;20071;-88
2021/11/11 12:10:06;;;;;;;38.20;23.88;;;10.70;99.90;;;;;;5019828;28;20948;-88
2021/11/11 12:15:51;;;;;;;43.28;25.27;;;10.90;99.90;;;;;;4965005;28;20865;-89
2021/11/11 12:38:46;;;;;;;40.85;23.63;;;11.10;99.90;;;;;;5053662;28;20112;-89
2021/11/11 12:41:16;;;;;;;44.33;25.25;;;11.20;99.90;;;;;;5041680;28;20041;-90
2021/11/11 12:43:43;;;;;;;45.78;25.75;;;11.10;99.90;;;;;;5032973;28;20037;-90
2021/11/11 12:46:43;;;;;;;44.50;25.85;;;11.10;99.90;;;;;;5031586;28;20040;-90
2021/11/11 12:49:29;;;;;;;46.90;24.25;;;11.20;99.90;;;;;;5045550;28;20378;-89
2021/11/11 12:52:20;;;;;;;43.60;24.73;;;11.20;99.90;;;;;;5046304;28;20051;-89
2021/11/11 12:54:46;;;;;;;41.28;23.92;;;11.30;99.90;;;;;;5047264;28;20116;-90
2021/11/11 12:57:14;;;;;;;38.88;24.08;;;11.30;99.90;;;;;;5028343;28;20113;-89
2021/11/11 12:59:40;;;;;;;42.13;25.25;;;11.40;99.90;;;;;;5027848;28;20049;-89
2021/11/11 13:02:07;;;;;;;40.95;23.55;;;11.40;99.90;;;;;;5045615;28;20028;-88
2021/11/11 13:05:01;;;;;;;40.20;24.00;;;11.50;99.90;;;;;;5024791;28;20477;-91
2021/11/11 13:07:47;;;;;;;39.42;24.17;;;11.50;99.90;;;;;;5029005;28;20126;-91
2021/11/11 13:10:19;;;;;;;39.85;23.88;;;11.50;99.90;;;;;;5036906;28;20037;-89
2021/11/11 13:13:12;;;;;;;36.20;23.37;;;11.50;99.90;;;;;;5028230;28;20021;-90
2021/11/11 13:15:42;;;;;;;35.20;23.60;;;11.50;99.90;;;;;;5045613;28;20334;-89
2021/11/11 13:18:09;;;;;;;40.50;25.58;;;11.50;99.90;;;;;;5035848;28;20025;-88
2021/11/11 13:20:49;;;;;;;39.88;24.55;;;11.40;99.90;;;;;;5027287;28;21569;-89
2021/11/11 13:23:27;;;;;;;40.70;24.60;;;11.50;99.90;;;;;;5034382;28;20033;-89
2021/11/11 13:43:42;;;;;;;39.50;24.27;;;11.50;99.90;;;;;;5054786;28;20059;-88
2021/11/11 13:54:50;;;;;;;42.28;25.77;;;11.50;99.90;;;;;;5049260;28;20031;-90
2021/11/11 14:27:45;;;;;;;49.33;26.10;;;11.60;99.90;;;;;;5048193;28;20037;-90
2021/11/11 15:16:20;;;;;;;43.40;26.52;;;11.10;99.90;;;;;;5050924;28;20095;-89